sensor_id;sensor_type;location;lat;lon;timestamp;P1;durP1;ratioP1;P2;durP2;ratioP2
60494;SDS011;46342;49.046;11.920;2023-10-31T00:00:23;1.20;;;1.10;;
60494;SDS011;46342;49.046;11.920;2023-10-31T00:02:48;1.10;;;1.00;;
60494;SDS011;46342;49.046;11.920;2023-10-31T00:05:14;1.00;;;0.90;;
60494;SDS011;46342;49.046;11.920;2023-10-31T00:07:40;1.00;;;0.90;;
60494;SDS011;46342;49.046;11.920;2023-10-31T00:10:05;1.40;;;1.30;;
60494;SDS011;46342;49.046;11.920;2023-10-31T00:12:31;2.47;;;0.90;;
60494;SDS011;46342;49.046;11.920;2023-10-31T00:14:57;1.83;;;0.77;;
60494;SDS011;46342;49.046;11.920;2023-10-31T00:17:23;1.00;;;1.00;;
60494;SDS011;46342;49.046;11.920;2023-10-31T00:19:48;1.10;;;0.90;;
60494;SDS011;46342;49.046;11.920;2023-10-31T00:22:14;0.80;;;0.80;;
60494;SDS011;46342;49.046;11.920;2023-10-31T00:24:39;0.80;;;0.80;;
60494;SDS011;46342;49.046;11.920;2023-10-31T00:27:05;0.82;;;0.70;;
60494;SDS011;46342;49.046;11.920;2023-10-31T00:29:30;1.00;;;0.80;;
60494;SDS011;46342;49.046;11.920;2023-10-31T00:31:56;2.08;;;0.80;;
60494;SDS011;46342;49.046;11.920;2023-10-31T00:34:21;0.60;;;0.60;;
60494;SDS011;46342;49.046;11.920;2023-10-31T00:36:47;0.90;;;0.73;;
60494;SDS011;46342;49.046;11.920;2023-10-31T00:39:12;0.60;;;0.60;;
60494;SDS011;46342;49.046;11.920;2023-10-31T00:41:39;2.83;;;1.63;;
60494;SDS011;46342;49.046;11.920;2023-10-31T00:44:09;0.75;;;0.75;;
60494;SDS011;46342;49.046;11.920;2023-10-31T00:46:35;0.60;;;0.60;;
60494;SDS011;46342;49.046;11.920;2023-10-31T00:49:00;0.63;;;0.63;;
60494;SDS011;46342;49.046;11.920;2023-10-31T00:51:26;0.70;;;0.70;;
60494;SDS011;46342;49.046;11.920;2023-10-31T00:53:51;0.60;;;0.60;;
60494;SDS011;46342;49.046;11.920;2023-10-31T00:56:17;0.70;;;0.65;;
60494;SDS011;46342;49.046;11.920;2023-10-31T00:58:43;0.70;;;0.70;;
60494;SDS011;46342;49.046;11.920;2023-10-31T01:01:08;0.85;;;0.60;;
60494;SDS011;46342;49.046;11.920;2023-10-31T01:03:34;2.15;;;0.60;;
60494;SDS011;46342;49.046;11.920;2023-10-31T01:05:59;0.65;;;0.65;;
60494;SDS011;46342;49.046;11.920;2023-10-31T01:08:25;0.70;;;0.70;;
60494;SDS011;46342;49.046;11.920;2023-10-31T01:10:51;0.70;;;0.70;;
60494;SDS011;46342;49.046;11.920;2023-10-31T01:13:17;0.60;;;0.60;;
60494;SDS011;46342;49.046;11.920;2023-10-31T01:15:43;0.60;;;0.60;;
60494;SDS011;46342;49.046;11.920;2023-10-31T01:18:08;0.70;;;0.70;;
60494;SDS011;46342;49.046;11.920;2023-10-31T01:20:34;0.60;;;0.60;;
60494;SDS011;46342;49.046;11.920;2023-10-31T01:22:59;0.70;;;0.70;;
60494;SDS011;46342;49.046;11.920;2023-10-31T01:25:25;0.70;;;0.70;;
60494;SDS011;46342;49.046;11.920;2023-10-31T01:27:50;0.50;;;0.50;;
60494;SDS011;46342;49.046;11.920;2023-10-31T01:30:16;0.52;;;0.52;;
60494;SDS011;46342;49.046;11.920;2023-10-31T01:32:42;0.50;;;0.50;;
60494;SDS011;46342;49.046;11.920;2023-10-31T01:35:07;1.63;;;0.80;;
60494;SDS011;46342;49.046;11.920;2023-10-31T01:37:33;0.70;;;0.70;;
60494;SDS011;46342;49.046;11.920;2023-10-31T01:39:58;0.63;;;0.63;;
60494;SDS011;46342;49.046;11.920;2023-10-31T01:42:24;1.67;;;0.60;;
60494;SDS011;46342;49.046;11.920;2023-10-31T01:44:50;0.60;;;0.60;;
60494;SDS011;46342;49.046;11.920;2023-10-31T01:47:15;0.60;;;0.60;;
60494;SDS011;46342;49.046;11.920;2023-10-31T01:49:41;0.50;;;0.50;;
60494;SDS011;46342;49.046;11.920;2023-10-31T01:52:06;0.75;;;0.70;;
60494;SDS011;46342;49.046;11.920;2023-10-31T01:54:32;0.60;;;0.60;;
60494;SDS011;46342;49.046;11.920;2023-10-31T01:56:59;0.50;;;0.50;;
60494;SDS011;46342;49.046;11.920;2023-10-31T01:59:29;0.60;;;0.60;;
60494;SDS011;46342;49.046;11.920;2023-10-31T02:01:55;1.30;;;0.60;;
60494;SDS011;46342;49.046;11.920;2023-10-31T02:04:22;0.68;;;0.68;;
60494;SDS011;46342;49.046;11.920;2023-10-31T02:06:50;0.50;;;0.50;;
60494;SDS011;46342;49.046;11.920;2023-10-31T02:09:16;0.80;;;0.70;;
60494;SDS011;46342;49.046;11.920;2023-10-31T02:11:42;1.73;;;0.77;;
60494;SDS011;46342;49.046;11.920;2023-10-31T02:14:07;0.63;;;0.63;;
60494;SDS011;46342;49.046;11.920;2023-10-31T02:16:33;2.45;;;0.68;;
60494;SDS011;46342;49.046;11.920;2023-10-31T02:18:58;0.70;;;0.70;;
60494;SDS011;46342;49.046;11.920;2023-10-31T02:21:24;0.60;;;0.60;;
60494;SDS011;46342;49.046;11.920;2023-10-31T02:23:57;0.60;;;0.60;;
60494;SDS011;46342;49.046;11.920;2023-10-31T02:26:33;0.60;;;0.60;;
60494;SDS011;46342;49.046;11.920;2023-10-31T02:29:00;0.60;;;0.60;;
60494;SDS011;46342;49.046;11.920;2023-10-31T02:31:27;0.50;;;0.50;;
60494;SDS011;46342;49.046;11.920;2023-10-31T02:33:52;0.57;;;0.57;;
60494;SDS011;46342;49.046;11.920;2023-10-31T02:36:18;3.30;;;0.60;;
60494;SDS011;46342;49.046;11.920;2023-10-31T02:38:44;0.60;;;0.60;;
60494;SDS011;46342;49.046;11.920;2023-10-31T02:41:10;0.60;;;0.60;;
60494;SDS011;46342;49.046;11.920;2023-10-31T02:43:37;0.60;;;0.60;;
60494;SDS011;46342;49.046;11.920;2023-10-31T02:46:03;0.60;;;0.60;;
60494;SDS011;46342;49.046;11.920;2023-10-31T02:48:28;0.50;;;0.50;;
60494;SDS011;46342;49.046;11.920;2023-10-31T02:50:56;0.55;;;0.55;;
60494;SDS011;46342;49.046;11.920;2023-10-31T02:53:22;0.80;;;0.60;;
60494;SDS011;46342;49.046;11.920;2023-10-31T02:55:48;1.48;;;0.60;;
60494;SDS011;46342;49.046;11.920;2023-10-31T02:58:14;0.50;;;0.50;;
60494;SDS011;46342;49.046;11.920;2023-10-31T03:00:39;1.77;;;0.60;;
60494;SDS011;46342;49.046;11.920;2023-10-31T03:03:05;0.98;;;0.70;;
60494;SDS011;46342;49.046;11.920;2023-10-31T03:05:30;0.50;;;0.50;;
60494;SDS011;46342;49.046;11.920;2023-10-31T03:07:56;0.65;;;0.65;;
60494;SDS011;46342;49.046;11.920;2023-10-31T03:10:22;0.60;;;0.60;;
60494;SDS011;46342;49.046;11.920;2023-10-31T03:12:47;0.50;;;0.50;;
60494;SDS011;46342;49.046;11.920;2023-10-31T03:15:13;0.50;;;0.50;;
60494;SDS011;46342;49.046;11.920;2023-10-31T03:17:38;0.60;;;0.50;;
60494;SDS011;46342;49.046;11.920;2023-10-31T03:20:04;0.40;;;0.40;;
60494;SDS011;46342;49.046;11.920;2023-10-31T03:22:30;0.50;;;0.50;;
60494;SDS011;46342;49.046;11.920;2023-10-31T03:24:56;0.47;;;0.47;;
60494;SDS011;46342;49.046;11.920;2023-10-31T03:27:21;0.40;;;0.40;;
60494;SDS011;46342;49.046;11.920;2023-10-31T03:29:47;0.32;;;0.32;;
60494;SDS011;46342;49.046;11.920;2023-10-31T03:32:14;1.73;;;0.50;;
60494;SDS011;46342;49.046;11.920;2023-10-31T03:34:40;0.47;;;0.47;;
60494;SDS011;46342;49.046;11.920;2023-10-31T03:37:05;0.50;;;0.50;;
60494;SDS011;46342;49.046;11.920;2023-10-31T03:39:31;0.50;;;0.50;;
60494;SDS011;46342;49.046;11.920;2023-10-31T03:41:57;0.47;;;0.47;;
60494;SDS011;46342;49.046;11.920;2023-10-31T03:44:22;0.52;;;0.52;;
60494;SDS011;46342;49.046;11.920;2023-10-31T03:46:48;0.60;;;0.60;;
60494;SDS011;46342;49.046;11.920;2023-10-31T03:49:13;0.50;;;0.50;;
60494;SDS011;46342;49.046;11.920;2023-10-31T03:51:39;0.43;;;0.43;;
60494;SDS011;46342;49.046;11.920;2023-10-31T03:54:04;0.55;;;0.55;;
60494;SDS011;46342;49.046;11.920;2023-10-31T03:56:30;0.77;;;0.70;;
60494;SDS011;46342;49.046;11.920;2023-10-31T03:59:02;1.00;;;0.60;;
60494;SDS011;46342;49.046;11.920;2023-10-31T04:01:28;0.47;;;0.47;;
60494;SDS011;46342;49.046;11.920;2023-10-31T04:03:53;0.43;;;0.40;;
60494;SDS011;46342;49.046;11.920;2023-10-31T04:06:19;0.40;;;0.35;;
60494;SDS011;46342;49.046;11.920;2023-10-31T04:08:45;0.50;;;0.50;;
60494;SDS011;46342;49.046;11.920;2023-10-31T04:11:10;0.40;;;0.40;;
60494;SDS011;46342;49.046;11.920;2023-10-31T04:13:36;0.50;;;0.50;;
60494;SDS011;46342;49.046;11.920;2023-10-31T04:16:01;0.50;;;0.50;;
60494;SDS011;46342;49.046;11.920;2023-10-31T04:18:27;1.88;;;0.60;;
60494;SDS011;46342;49.046;11.920;2023-10-31T04:20:52;0.40;;;0.40;;
60494;SDS011;46342;49.046;11.920;2023-10-31T04:23:18;0.40;;;0.40;;
60494;SDS011;46342;49.046;11.920;2023-10-31T04:25:43;0.50;;;0.50;;
60494;SDS011;46342;49.046;11.920;2023-10-31T04:28:09;0.40;;;0.40;;
60494;SDS011;46342;49.046;11.920;2023-10-31T04:30:35;1.13;;;0.50;;
60494;SDS011;46342;49.046;11.920;2023-10-31T04:33:00;0.30;;;0.30;;
60494;SDS011;46342;49.046;11.920;2023-10-31T04:35:26;0.30;;;0.30;;
60494;SDS011;46342;49.046;11.920;2023-10-31T04:37:51;0.30;;;0.30;;
60494;SDS011;46342;49.046;11.920;2023-10-31T04:40:17;1.95;;;0.50;;
60494;SDS011;46342;49.046;11.920;2023-10-31T04:42:43;0.40;;;0.40;;
60494;SDS011;46342;49.046;11.920;2023-10-31T04:45:12;0.35;;;0.35;;
60494;SDS011;46342;49.046;11.920;2023-10-31T04:47:37;0.60;;;0.60;;
60494;SDS011;46342;49.046;11.920;2023-10-31T04:50:03;0.40;;;0.40;;
60494;SDS011;46342;49.046;11.920;2023-10-31T04:52:29;0.30;;;0.30;;
60494;SDS011;46342;49.046;11.920;2023-10-31T04:54:54;0.50;;;0.50;;
60494;SDS011;46342;49.046;11.920;2023-10-31T04:57:20;0.50;;;0.50;;
60494;SDS011;46342;49.046;11.920;2023-10-31T04:59:45;0.50;;;0.50;;
60494;SDS011;46342;49.046;11.920;2023-10-31T05:02:11;0.40;;;0.40;;
60494;SDS011;46342;49.046;11.920;2023-10-31T05:04:39;1.38;;;0.60;;
60494;SDS011;46342;49.046;11.920;2023-10-31T05:07:05;0.40;;;0.40;;
60494;SDS011;46342;49.046;11.920;2023-10-31T05:09:31;1.20;;;0.50;;
60494;SDS011;46342;49.046;11.920;2023-10-31T05:11:56;0.75;;;0.75;;
60494;SDS011;46342;49.046;11.920;2023-10-31T05:14:22;0.93;;;0.43;;
60494;SDS011;46342;49.046;11.920;2023-10-31T05:16:47;0.40;;;0.40;;
60494;SDS011;46342;49.046;11.920;2023-10-31T05:19:13;0.55;;;0.55;;
60494;SDS011;46342;49.046;11.920;2023-10-31T05:21:39;0.50;;;0.50;;
60494;SDS011;46342;49.046;11.920;2023-10-31T05:24:04;0.47;;;0.47;;
60494;SDS011;46342;49.046;11.920;2023-10-31T05:26:30;0.38;;;0.38;;
60494;SDS011;46342;49.046;11.920;2023-10-31T05:28:56;1.05;;;0.60;;
60494;SDS011;46342;49.046;11.920;2023-10-31T05:31:23;1.20;;;0.80;;
60494;SDS011;46342;49.046;11.920;2023-10-31T05:33:49;0.60;;;0.60;;
60494;SDS011;46342;49.046;11.920;2023-10-31T05:36:20;0.47;;;0.40;;
60494;SDS011;46342;49.046;11.920;2023-10-31T05:38:47;1.85;;;0.50;;
60494;SDS011;46342;49.046;11.920;2023-10-31T05:41:13;0.50;;;0.50;;
60494;SDS011;46342;49.046;11.920;2023-10-31T05:43:39;0.98;;;0.60;;
60494;SDS011;46342;49.046;11.920;2023-10-31T05:46:05;0.35;;;0.35;;
60494;SDS011;46342;49.046;11.920;2023-10-31T05:48:33;0.47;;;0.47;;
60494;SDS011;46342;49.046;11.920;2023-10-31T05:50:59;0.73;;;0.43;;
60494;SDS011;46342;49.046;11.920;2023-10-31T05:53:25;0.40;;;0.40;;
60494;SDS011;46342;49.046;11.920;2023-10-31T05:55:50;0.50;;;0.50;;
60494;SDS011;46342;49.046;11.920;2023-10-31T05:58:16;0.40;;;0.40;;
60494;SDS011;46342;49.046;11.920;2023-10-31T06:00:41;0.55;;;0.40;;
60494;SDS011;46342;49.046;11.920;2023-10-31T06:03:07;1.38;;;0.35;;
60494;SDS011;46342;49.046;11.920;2023-10-31T06:05:33;1.30;;;0.40;;
60494;SDS011;46342;49.046;11.920;2023-10-31T06:07:59;1.27;;;0.30;;
60494;SDS011;46342;49.046;11.920;2023-10-31T06:10:25;5.88;;;0.60;;
60494;SDS011;46342;49.046;11.920;2023-10-31T06:12:51;0.85;;;0.80;;
60494;SDS011;46342;49.046;11.920;2023-10-31T06:15:17;0.60;;;0.60;;
60494;SDS011;46342;49.046;11.920;2023-10-31T06:17:42;0.90;;;0.82;;
60494;SDS011;46342;49.046;11.920;2023-10-31T06:20:08;0.50;;;0.50;;
60494;SDS011;46342;49.046;11.920;2023-10-31T06:22:34;1.23;;;0.50;;
60494;SDS011;46342;49.046;11.920;2023-10-31T06:24:59;0.60;;;0.50;;
60494;SDS011;46342;49.046;11.920;2023-10-31T06:27:26;0.57;;;0.50;;
60494;SDS011;46342;49.046;11.920;2023-10-31T06:29:51;0.50;;;0.50;;
60494;SDS011;46342;49.046;11.920;2023-10-31T06:32:17;0.50;;;0.50;;
60494;SDS011;46342;49.046;11.920;2023-10-31T06:34:43;1.20;;;0.80;;
60494;SDS011;46342;49.046;11.920;2023-10-31T06:37:08;0.70;;;0.70;;
60494;SDS011;46342;49.046;11.920;2023-10-31T06:39:34;0.60;;;0.60;;
60494;SDS011;46342;49.046;11.920;2023-10-31T06:42:00;0.50;;;0.50;;
60494;SDS011;46342;49.046;11.920;2023-10-31T06:44:25;0.43;;;0.43;;
60494;SDS011;46342;49.046;11.920;2023-10-31T06:46:51;1.45;;;0.50;;
60494;SDS011;46342;49.046;11.920;2023-10-31T06:49:17;0.40;;;0.40;;
60494;SDS011;46342;49.046;11.920;2023-10-31T06:51:44;0.50;;;0.50;;
60494;SDS011;46342;49.046;11.920;2023-10-31T06:54:10;2.47;;;0.60;;
60494;SDS011;46342;49.046;11.920;2023-10-31T06:56:35;0.52;;;0.50;;
60494;SDS011;46342;49.046;11.920;2023-10-31T06:59:01;0.57;;;0.57;;
60494;SDS011;46342;49.046;11.920;2023-10-31T07:01:26;0.40;;;0.40;;
60494;SDS011;46342;49.046;11.920;2023-10-31T07:03:52;1.60;;;0.65;;
60494;SDS011;46342;49.046;11.920;2023-10-31T07:06:17;1.08;;;0.82;;
60494;SDS011;46342;49.046;11.920;2023-10-31T07:08:43;0.43;;;0.43;;
60494;SDS011;46342;49.046;11.920;2023-10-31T07:11:09;0.93;;;0.40;;
60494;SDS011;46342;49.046;11.920;2023-10-31T07:13:34;0.55;;;0.45;;
60494;SDS011;46342;49.046;11.920;2023-10-31T07:16:02;0.52;;;0.43;;
60494;SDS011;46342;49.046;11.920;2023-10-31T07:18:30;0.60;;;0.47;;
60494;SDS011;46342;49.046;11.920;2023-10-31T07:20:56;0.40;;;0.40;;
60494;SDS011;46342;49.046;11.920;2023-10-31T07:23:21;0.40;;;0.40;;
60494;SDS011;46342;49.046;11.920;2023-10-31T07:25:47;0.68;;;0.52;;
60494;SDS011;46342;49.046;11.920;2023-10-31T07:28:12;0.60;;;0.60;;
60494;SDS011;46342;49.046;11.920;2023-10-31T07:30:38;0.50;;;0.50;;
60494;SDS011;46342;49.046;11.920;2023-10-31T07:33:04;0.50;;;0.50;;
60494;SDS011;46342;49.046;11.920;2023-10-31T07:35:29;1.27;;;0.52;;
60494;SDS011;46342;49.046;11.920;2023-10-31T07:37:57;0.95;;;0.57;;
60494;SDS011;46342;49.046;11.920;2023-10-31T07:40:22;0.50;;;0.50;;
60494;SDS011;46342;49.046;11.920;2023-10-31T07:42:48;0.40;;;0.40;;
60494;SDS011;46342;49.046;11.920;2023-10-31T07:45:13;0.50;;;0.50;;
60494;SDS011;46342;49.046;11.920;2023-10-31T07:47:39;0.50;;;0.50;;
60494;SDS011;46342;49.046;11.920;2023-10-31T07:50:05;1.08;;;0.50;;
60494;SDS011;46342;49.046;11.920;2023-10-31T07:52:31;0.70;;;0.70;;
60494;SDS011;46342;49.046;11.920;2023-10-31T07:54:56;1.02;;;0.50;;
60494;SDS011;46342;49.046;11.920;2023-10-31T07:57:22;0.50;;;0.50;;
60494;SDS011;46342;49.046;11.920;2023-10-31T07:59:47;0.98;;;0.55;;
60494;SDS011;46342;49.046;11.920;2023-10-31T08:02:13;0.45;;;0.45;;
60494;SDS011;46342;49.046;11.920;2023-10-31T08:04:38;0.50;;;0.50;;
60494;SDS011;46342;49.046;11.920;2023-10-31T08:07:04;0.50;;;0.50;;
60494;SDS011;46342;49.046;11.920;2023-10-31T08:09:29;1.42;;;0.50;;
60494;SDS011;46342;49.046;11.920;2023-10-31T08:11:55;0.77;;;0.47;;
60494;SDS011;46342;49.046;11.920;2023-10-31T08:14:21;1.33;;;0.70;;
60494;SDS011;46342;49.046;11.920;2023-10-31T08:16:47;0.73;;;0.73;;
60494;SDS011;46342;49.046;11.920;2023-10-31T08:19:13;1.48;;;0.60;;
60494;SDS011;46342;49.046;11.920;2023-10-31T08:21:39;0.63;;;0.63;;
60494;SDS011;46342;49.046;11.920;2023-10-31T08:24:05;2.22;;;0.90;;
60494;SDS011;46342;49.046;11.920;2023-10-31T08:26:31;0.98;;;0.98;;
60494;SDS011;46342;49.046;11.920;2023-10-31T08:28:57;0.63;;;0.63;;
60494;SDS011;46342;49.046;11.920;2023-10-31T08:31:23;0.57;;;0.50;;
60494;SDS011;46342;49.046;11.920;2023-10-31T08:33:49;0.55;;;0.50;;
60494;SDS011;46342;49.046;11.920;2023-10-31T08:36:14;0.60;;;0.60;;
60494;SDS011;46342;49.046;11.920;2023-10-31T08:38:40;1.15;;;0.60;;
60494;SDS011;46342;49.046;11.920;2023-10-31T08:41:06;1.45;;;0.50;;
60494;SDS011;46342;49.046;11.920;2023-10-31T08:43:31;0.70;;;0.70;;
60494;SDS011;46342;49.046;11.920;2023-10-31T08:45:57;0.93;;;0.93;;
60494;SDS011;46342;49.046;11.920;2023-10-31T08:48:23;1.80;;;0.77;;
60494;SDS011;46342;49.046;11.920;2023-10-31T08:50:48;1.17;;;0.60;;
60494;SDS011;46342;49.046;11.920;2023-10-31T08:53:14;0.40;;;0.40;;
60494;SDS011;46342;49.046;11.920;2023-10-31T08:55:40;0.50;;;0.50;;
60494;SDS011;46342;49.046;11.920;2023-10-31T08:58:09;0.50;;;0.50;;
60494;SDS011;46342;49.046;11.920;2023-10-31T09:00:43;1.23;;;0.50;;
60494;SDS011;46342;49.046;11.920;2023-10-31T09:03:09;0.50;;;0.50;;
60494;SDS011;46342;49.046;11.920;2023-10-31T09:05:34;0.40;;;0.40;;
60494;SDS011;46342;49.046;11.920;2023-10-31T09:08:00;0.77;;;0.60;;
60494;SDS011;46342;49.046;11.920;2023-10-31T09:10:25;0.50;;;0.50;;
60494;SDS011;46342;49.046;11.920;2023-10-31T09:12:51;0.55;;;0.55;;
60494;SDS011;46342;49.046;11.920;2023-10-31T09:15:17;1.45;;;0.52;;
60494;SDS011;46342;49.046;11.920;2023-10-31T09:17:43;0.52;;;0.52;;
60494;SDS011;46342;49.046;11.920;2023-10-31T09:20:09;0.52;;;0.50;;
60494;SDS011;46342;49.046;11.920;2023-10-31T09:22:36;1.65;;;0.50;;
60494;SDS011;46342;49.046;11.920;2023-10-31T09:25:02;0.50;;;0.50;;
60494;SDS011;46342;49.046;11.920;2023-10-31T09:27:28;0.57;;;0.57;;
60494;SDS011;46342;49.046;11.920;2023-10-31T09:29:53;0.82;;;0.50;;
60494;SDS011;46342;49.046;11.920;2023-10-31T09:32:19;2.97;;;1.00;;
60494;SDS011;46342;49.046;11.920;2023-10-31T09:34:44;1.40;;;0.40;;
60494;SDS011;46342;49.046;11.920;2023-10-31T09:37:10;0.60;;;0.60;;
60494;SDS011;46342;49.046;11.920;2023-10-31T09:39:35;0.80;;;0.73;;
60494;SDS011;46342;49.046;11.920;2023-10-31T09:42:01;0.98;;;0.70;;
60494;SDS011;46342;49.046;11.920;2023-10-31T09:44:27;1.10;;;0.80;;
60494;SDS011;46342;49.046;11.920;2023-10-31T09:46:53;0.75;;;0.75;;
60494;SDS011;46342;49.046;11.920;2023-10-31T09:49:18;0.60;;;0.60;;
60494;SDS011;46342;49.046;11.920;2023-10-31T09:51:44;0.60;;;0.50;;
60494;SDS011;46342;49.046;11.920;2023-10-31T09:54:11;0.43;;;0.43;;
60494;SDS011;46342;49.046;11.920;2023-10-31T09:56:40;3.13;;;1.38;;
60494;SDS011;46342;49.046;11.920;2023-10-31T09:59:06;3.92;;;2.45;;
60494;SDS011;46342;49.046;11.920;2023-10-31T10:01:32;1.88;;;1.08;;
60494;SDS011;46342;49.046;11.920;2023-10-31T10:03:58;2.20;;;0.80;;
60494;SDS011;46342;49.046;11.920;2023-10-31T10:06:24;2.75;;;1.08;;
60494;SDS011;46342;49.046;11.920;2023-10-31T10:08:50;1.40;;;0.70;;
60494;SDS011;46342;49.046;11.920;2023-10-31T10:11:15;1.45;;;0.60;;
60494;SDS011;46342;49.046;11.920;2023-10-31T10:13:41;0.80;;;0.77;;
60494;SDS011;46342;49.046;11.920;2023-10-31T10:16:07;1.63;;;0.52;;
60494;SDS011;46342;49.046;11.920;2023-10-31T10:18:35;0.50;;;0.50;;
60494;SDS011;46342;49.046;11.920;2023-10-31T10:21:04;1.08;;;0.63;;
60494;SDS011;46342;49.046;11.920;2023-10-31T10:23:31;0.80;;;0.57;;
60494;SDS011;46342;49.046;11.920;2023-10-31T10:25:57;0.50;;;0.50;;
60494;SDS011;46342;49.046;11.920;2023-10-31T10:28:24;0.50;;;0.50;;
60494;SDS011;46342;49.046;11.920;2023-10-31T10:30:51;0.50;;;0.50;;
60494;SDS011;46342;49.046;11.920;2023-10-31T10:33:18;0.70;;;0.60;;
60494;SDS011;46342;49.046;11.920;2023-10-31T10:35:43;1.65;;;0.50;;
60494;SDS011;46342;49.046;11.920;2023-10-31T10:38:10;0.43;;;0.40;;
60494;SDS011;46342;49.046;11.920;2023-10-31T10:40:42;0.50;;;0.50;;
60494;SDS011;46342;49.046;11.920;2023-10-31T10:43:13;0.50;;;0.50;;
60494;SDS011;46342;49.046;11.920;2023-10-31T10:48:23;0.40;;;0.40;;
60494;SDS011;46342;49.046;11.920;2023-10-31T10:53:25;0.70;;;0.63;;
60494;SDS011;46342;49.046;11.920;2023-10-31T10:56:03;1.80;;;0.50;;
60494;SDS011;46342;49.046;11.920;2023-10-31T10:58:44;0.50;;;0.50;;
60494;SDS011;46342;49.046;11.920;2023-10-31T11:01:15;0.82;;;0.50;;
60494;SDS011;46342;49.046;11.920;2023-10-31T11:03:43;0.90;;;0.55;;
60494;SDS011;46342;49.046;11.920;2023-10-31T11:06:10;0.68;;;0.68;;
60494;SDS011;46342;49.046;11.920;2023-10-31T11:08:37;3.20;;;1.58;;
60494;SDS011;46342;49.046;11.920;2023-10-31T11:11:03;3.25;;;1.63;;
60494;SDS011;46342;49.046;11.920;2023-10-31T11:13:30;1.48;;;1.10;;
60494;SDS011;46342;49.046;11.920;2023-10-31T11:15:57;2.13;;;1.35;;
60494;SDS011;46342;49.046;11.920;2023-10-31T11:18:31;1.10;;;0.85;;
60494;SDS011;46342;49.046;11.920;2023-10-31T11:20:57;1.50;;;1.00;;
60494;SDS011;46342;49.046;11.920;2023-10-31T11:23:22;1.10;;;1.00;;
60494;SDS011;46342;49.046;11.920;2023-10-31T11:25:49;0.75;;;0.73;;
60494;SDS011;46342;49.046;11.920;2023-10-31T11:28:18;4.03;;;1.00;;
60494;SDS011;46342;49.046;11.920;2023-10-31T11:30:45;0.95;;;0.90;;
60494;SDS011;46342;49.046;11.920;2023-10-31T11:33:14;0.80;;;0.80;;
60494;SDS011;46342;49.046;11.920;2023-10-31T11:35:41;0.50;;;0.50;;
60494;SDS011;46342;49.046;11.920;2023-10-31T11:38:10;0.50;;;0.50;;
60494;SDS011;46342;49.046;11.920;2023-10-31T11:43:14;2.03;;;1.13;;
60494;SDS011;46342;49.046;11.920;2023-10-31T11:45:43;2.92;;;1.02;;
60494;SDS011;46342;49.046;11.920;2023-10-31T11:48:12;1.10;;;0.80;;
60494;SDS011;46342;49.046;11.920;2023-10-31T11:50:37;1.75;;;0.70;;
60494;SDS011;46342;49.046;11.920;2023-10-31T11:53:04;2.33;;;0.80;;
60494;SDS011;46342;49.046;11.920;2023-10-31T11:55:35;1.05;;;0.60;;
60494;SDS011;46342;49.046;11.920;2023-10-31T11:58:20;0.50;;;0.50;;
60494;SDS011;46342;49.046;11.920;2023-10-31T12:01:01;1.45;;;0.85;;
60494;SDS011;46342;49.046;11.920;2023-10-31T12:03:35;1.60;;;0.80;;
60494;SDS011;46342;49.046;11.920;2023-10-31T12:06:12;1.58;;;0.82;;
60494;SDS011;46342;49.046;11.920;2023-10-31T12:08:39;1.65;;;1.10;;
60494;SDS011;46342;49.046;11.920;2023-10-31T12:11:14;2.05;;;1.00;;
60494;SDS011;46342;49.046;11.920;2023-10-31T12:13:52;1.48;;;0.90;;
60494;SDS011;46342;49.046;11.920;2023-10-31T12:16:25;2.28;;;0.82;;
60494;SDS011;46342;49.046;11.920;2023-10-31T12:18:59;2.00;;;0.90;;
60494;SDS011;46342;49.046;11.920;2023-10-31T12:21:35;0.65;;;0.60;;
60494;SDS011;46342;49.046;11.920;2023-10-31T12:24:05;0.70;;;0.60;;
60494;SDS011;46342;49.046;11.920;2023-10-31T12:26:32;0.80;;;0.80;;
60494;SDS011;46342;49.046;11.920;2023-10-31T12:29:06;0.52;;;0.52;;
60494;SDS011;46342;49.046;11.920;2023-10-31T12:31:38;0.73;;;0.43;;
60494;SDS011;46342;49.046;11.920;2023-10-31T12:34:07;0.60;;;0.60;;
60494;SDS011;46342;49.046;11.920;2023-10-31T12:36:33;0.73;;;0.70;;
60494;SDS011;46342;49.046;11.920;2023-10-31T12:39:01;0.63;;;0.63;;
60494;SDS011;46342;49.046;11.920;2023-10-31T12:41:28;0.50;;;0.50;;
60494;SDS011;46342;49.046;11.920;2023-10-31T12:43:54;1.45;;;0.60;;
60494;SDS011;46342;49.046;11.920;2023-10-31T12:48:52;2.13;;;0.80;;
60494;SDS011;46342;49.046;11.920;2023-10-31T12:51:17;0.75;;;0.70;;
60494;SDS011;46342;49.046;11.920;2023-10-31T12:53:48;1.00;;;0.60;;
60494;SDS011;46342;49.046;11.920;2023-10-31T12:59:04;0.55;;;0.55;;
60494;SDS011;46342;49.046;11.920;2023-10-31T13:03:58;0.50;;;0.50;;
60494;SDS011;46342;49.046;11.920;2023-10-31T13:06:24;1.13;;;0.65;;
60494;SDS011;46342;49.046;11.920;2023-10-31T13:08:49;0.60;;;0.60;;
60494;SDS011;46342;49.046;11.920;2023-10-31T13:11:15;0.73;;;0.70;;
60494;SDS011;46342;49.046;11.920;2023-10-31T13:13:40;1.13;;;0.70;;
60494;SDS011;46342;49.046;11.920;2023-10-31T13:16:06;0.60;;;0.60;;
60494;SDS011;46342;49.046;11.920;2023-10-31T13:18:32;0.73;;;0.73;;
60494;SDS011;46342;49.046;11.920;2023-10-31T13:20:57;0.70;;;0.70;;
60494;SDS011;46342;49.046;11.920;2023-10-31T13:23:23;0.60;;;0.60;;
60494;SDS011;46342;49.046;11.920;2023-10-31T13:25:48;1.27;;;0.80;;
60494;SDS011;46342;49.046;11.920;2023-10-31T13:28:14;5.63;;;1.20;;
60494;SDS011;46342;49.046;11.920;2023-10-31T13:30:41;3.33;;;1.38;;
60494;SDS011;46342;49.046;11.920;2023-10-31T13:33:06;4.88;;;1.50;;
60494;SDS011;46342;49.046;11.920;2023-10-31T13:35:32;5.80;;;1.30;;
60494;SDS011;46342;49.046;11.920;2023-10-31T13:37:59;2.33;;;1.10;;
60494;SDS011;46342;49.046;11.920;2023-10-31T13:40:25;0.88;;;0.80;;
60494;SDS011;46342;49.046;11.920;2023-10-31T13:42:51;3.03;;;0.80;;
60494;SDS011;46342;49.046;11.920;2023-10-31T13:45:16;1.80;;;0.95;;
60494;SDS011;46342;49.046;11.920;2023-10-31T13:47:42;0.95;;;0.88;;
60494;SDS011;46342;49.046;11.920;2023-10-31T13:50:08;1.40;;;1.10;;
60494;SDS011;46342;49.046;11.920;2023-10-31T13:52:33;3.30;;;1.15;;
60494;SDS011;46342;49.046;11.920;2023-10-31T13:54:59;1.75;;;0.88;;
60494;SDS011;46342;49.046;11.920;2023-10-31T13:57:24;0.70;;;0.70;;
60494;SDS011;46342;49.046;11.920;2023-10-31T13:59:50;0.88;;;0.70;;
60494;SDS011;46342;49.046;11.920;2023-10-31T14:02:16;1.17;;;0.60;;
60494;SDS011;46342;49.046;11.920;2023-10-31T14:04:42;1.38;;;0.90;;
60494;SDS011;46342;49.046;11.920;2023-10-31T14:07:07;0.60;;;0.60;;
60494;SDS011;46342;49.046;11.920;2023-10-31T14:09:33;0.52;;;0.52;;
60494;SDS011;46342;49.046;11.920;2023-10-31T14:11:59;0.75;;;0.65;;
60494;SDS011;46342;49.046;11.920;2023-10-31T14:14:24;3.55;;;0.68;;
60494;SDS011;46342;49.046;11.920;2023-10-31T14:16:50;1.10;;;0.60;;
60494;SDS011;46342;49.046;11.920;2023-10-31T14:19:16;1.05;;;0.68;;
60494;SDS011;46342;49.046;11.920;2023-10-31T14:21:41;0.60;;;0.60;;
60494;SDS011;46342;49.046;11.920;2023-10-31T14:24:07;2.30;;;0.75;;
60494;SDS011;46342;49.046;11.920;2023-10-31T14:26:33;1.33;;;0.63;;
60494;SDS011;46342;49.046;11.920;2023-10-31T14:28:59;0.50;;;0.50;;
60494;SDS011;46342;49.046;11.920;2023-10-31T14:31:25;0.68;;;0.50;;
60494;SDS011;46342;49.046;11.920;2023-10-31T14:33:51;1.20;;;0.73;;
60494;SDS011;46342;49.046;11.920;2023-10-31T14:36:16;1.52;;;0.60;;
60494;SDS011;46342;49.046;11.920;2023-10-31T14:38:42;0.60;;;0.60;;
60494;SDS011;46342;49.046;11.920;2023-10-31T14:41:08;0.70;;;0.60;;
60494;SDS011;46342;49.046;11.920;2023-10-31T14:43:34;0.85;;;0.65;;